Time;durP1;ratioP1;P1;durP2;ratioP2;P2;SDS_P1;SDS_P2;PMS_P1;PMS_P2;Temp;Humidity;BMP_temperature;BMP_pressure;BME280_temperature;BME280_humidity;BME280_pressure;Samples;Min_cycle;Max_cycle;Signal;HPM_P1;HPM_P2
2021/01/25 00:00:58;;;;;;;8.63;5.70;;;;;;;;;;5053090;28;20168;-80
2021/01/25 00:03:24;;;;;;;8.23;5.25;;;;;;;;;;5034993;28;20710;-80
2021/01/25 00:11:39;;;;;;;9.48;6.28;;;;;;;;;;5053206;28;20236;-75
2021/01/25 00:14:05;;;;;;;8.17;5.70;;;;;;;;;;5052869;28;20176;-80
2021/01/25 00:16:33;;;;;;;7.13;5.30;;;;;;;;;;5052889;28;20509;-75
2021/01/25 00:19:02;;;;;;;7.70;5.65;;;;;;;;;;5052956;28;20422;-81
2021/01/25 00:21:28;;;;;;;9.00;5.45;;;;;;;;;;5052897;28;20247;-78
2021/01/25 00:23:59;;;;;;;9.17;5.17;;;;;;;;;;5053146;28;20203;-79
2021/01/25 00:26:28;;;;;;;7.65;5.10;;;;;;;;;;5052840;28;20408;-78
2021/01/25 00:28:54;;;;;;;5.15;4.50;;;;;;;;;;5052121;28;20175;-78
2021/01/25 00:31:20;;;;;;;5.30;4.80;;;;;;;;;;5034651;28;20187;-76
2021/01/25 00:33:46;;;;;;;11.43;3.53;;;;;;;;;;5034989;28;20194;-79
2021/01/25 00:42:00;;;;;;;3.97;3.67;;;;;;;;;;5052905;28;20174;-78
2021/01/25 00:44:26;;;;;;;6.87;5.33;;;;;;;;;;5052461;28;20178;-77
2021/01/25 00:46:52;;;;;;;9.00;5.07;;;;;;;;;;5052611;28;20835;-78
2021/01/25 00:49:20;;;;;;;7.93;5.20;;;;;;;;;;5052703;28;20180;-80
2021/01/25 00:51:52;;;;;;;9.40;4.97;;;;;;;;;;5034497;28;20623;-80
2021/01/25 00:54:18;;;;;;;6.93;5.07;;;;;;;;;;5052404;28;20182;-76
2021/01/25 00:56:47;;;;;;;4.73;4.20;;;;;;;;;;5051959;28;20705;-77
2021/01/25 00:59:13;;;;;;;7.10;5.28;;;;;;;;;;5051838;28;20429;-78
2021/01/25 01:01:41;;;;;;;7.10;5.20;;;;;;;;;;5052225;28;20176;-76
2021/01/25 01:04:07;;;;;;;5.32;4.75;;;;;;;;;;5052391;28;20446;-79
2021/01/25 01:12:24;;;;;;;7.72;4.82;;;;;;;;;;5056618;28;20198;-77
2021/01/25 01:14:50;;;;;;;7.97;5.47;;;;;;;;;;5055971;28;20173;-77
2021/01/25 01:17:16;;;;;;;8.95;5.53;;;;;;;;;;5055335;28;20469;-76
2021/01/25 01:19:45;;;;;;;9.05;5.50;;;;;;;;;;5055955;28;20724;-78
2021/01/25 01:22:13;;;;;;;6.18;5.55;;;;;;;;;;5055974;28;20172;-80
2021/01/25 01:24:39;;;;;;;6.43;5.63;;;;;;;;;;5055814;28;20233;-79
2021/01/25 01:27:05;;;;;;;5.60;4.57;;;;;;;;;;5055708;28;20200;-79
2021/01/25 01:29:31;;;;;;;7.78;5.22;;;;;;;;;;5055540;28;20176;-76
2021/01/25 01:31:57;;;;;;;4.70;4.30;;;;;;;;;;5055822;28;20176;-76
2021/01/25 01:34:26;;;;;;;9.00;5.93;;;;;;;;;;5038066;28;20439;-76
2021/01/25 01:36:52;;;;;;;12.13;5.43;;;;;;;;;;5055277;28;20485;-77
2021/01/25 01:42:22;;;;;;;6.22;4.78;;;;;;;;;;5055801;28;20664;-78
2021/01/25 01:44:50;;;;;;;6.07;5.20;;;;;;;;;;5055007;28;20185;-79
2021/01/25 01:47:23;;;;;;;6.07;5.45;;;;;;;;;;5055336;28;20171;-76
2021/01/25 01:49:51;;;;;;;8.85;5.68;;;;;;;;;;5054902;28;20164;-77
2021/01/25 01:52:17;;;;;;;5.15;3.80;;;;;;;;;;5054898;28;20165;-76
2021/01/25 01:54:43;;;;;;;6.55;4.22;;;;;;;;;;5037158;28;20514;-76
2021/01/25 01:57:10;;;;;;;10.25;5.43;;;;;;;;;;5055033;28;20211;-75
2021/01/25 01:59:44;;;;;;;7.75;5.25;;;;;;;;;;5054290;28;20515;-80
2021/01/25 02:02:10;;;;;;;6.30;4.90;;;;;;;;;;5054966;28;20175;-81
2021/01/25 02:04:36;;;;;;;6.00;4.65;;;;;;;;;;5055141;28;20630;-76
2021/01/25 02:07:06;;;;;;;5.15;4.57;;;;;;;;;;5054977;28;20297;-77
2021/01/25 02:12:39;;;;;;;7.93;5.40;;;;;;;;;;5055368;28;20644;-78
2021/01/25 02:15:06;;;;;;;6.30;4.82;;;;;;;;;;5054528;28;20192;-75
2021/01/25 02:17:34;;;;;;;6.35;4.38;;;;;;;;;;5054616;28;20246;-79
2021/01/25 02:20:04;;;;;;;8.20;4.07;;;;;;;;;;5054537;28;20157;-76
2021/01/25 02:22:38;;;;;;;6.28;4.45;;;;;;;;;;5053655;28;20180;-77
2021/01/25 02:25:10;;;;;;;7.10;4.57;;;;;;;;;;5036080;28;20188;-76
2021/01/25 02:27:37;;;;;;;6.85;5.32;;;;;;;;;;5054883;28;20647;-76
2021/01/25 02:30:07;;;;;;;5.88;4.90;;;;;;;;;;5054392;28;20619;-77
2021/01/25 02:32:36;;;;;;;8.60;5.28;;;;;;;;;;5054990;28;20254;-77
2021/01/25 02:35:03;;;;;;;5.53;4.43;;;;;;;;;;5036950;28;20216;-76
2021/01/25 02:37:30;;;;;;;7.32;5.07;;;;;;;;;;5054680;28;20218;-78
2021/01/25 02:43:00;;;;;;;5.13;4.65;;;;;;;;;;5054607;28;20618;-77
2021/01/25 02:45:29;;;;;;;9.80;5.55;;;;;;;;;;5054000;28;20168;-78
2021/01/25 02:47:57;;;;;;;4.85;4.45;;;;;;;;;;5054061;28;20169;-75
2021/01/25 02:50:23;;;;;;;5.05;4.47;;;;;;;;;;5053698;28;20191;-76
2021/01/25 02:52:52;;;;;;;4.30;3.90;;;;;;;;;;5054016;28;20204;-77
2021/01/25 02:55:18;;;;;;;7.47;4.50;;;;;;;;;;5053900;28;20403;-76
2021/01/25 02:57:45;;;;;;;5.05;4.55;;;;;;;;;;5053897;28;20211;-76
2021/01/25 03:00:11;;;;;;;5.72;4.47;;;;;;;;;;5053398;28;20251;-75
2021/01/25 03:02:38;;;;;;;5.93;4.38;;;;;;;;;;5036146;28;20188;-81
2021/01/25 03:05:04;;;;;;;6.25;5.20;;;;;;;;;;5053250;28;20165;-74
2021/01/25 03:07:31;;;;;;;4.53;4.22;;;;;;;;;;5053464;28;20191;-76
2021/01/25 03:13:01;;;;;;;6.47;4.53;;;;;;;;;;5053654;28;20172;-76
2021/01/25 03:15:28;;;;;;;6.05;4.47;;;;;;;;;;5053391;28;20504;-78
2021/01/25 03:17:54;;;;;;;6.28;4.30;;;;;;;;;;5053399;28;20251;-77
2021/01/25 03:20:20;;;;;;;3.97;3.40;;;;;;;;;;5053314;28;20165;-75
2021/01/25 03:22:46;;;;;;;4.25;3.40;;;;;;;;;;5053339;28;20172;-78
2021/01/25 03:28:15;;;;;;;3.63;3.30;;;;;;;;;;5052581;28;20521;-79
2021/01/25 03:30:41;;;;;;;4.07;3.67;;;;;;;;;;5053053;28;20234;-75
2021/01/25 03:33:07;;;;;;;5.20;2.30;;;;;;;;;;5053081;28;20184;-78
2021/01/25 03:35:33;;;;;;;3.40;3.03;;;;;;;;;;5053132;28;20192;-79
2021/01/25 03:37:59;;;;;;;4.38;3.47;;;;;;;;;;5052653;28;20473;-75
2021/01/25 03:43:29;;;;;;;4.65;3.45;;;;;;;;;;5053133;28;20633;-75
2021/01/25 03:45:55;;;;;;;4.00;3.60;;;;;;;;;;5052809;28;20168;-76
2021/01/25 03:48:21;;;;;;;4.88;3.95;;;;;;;;;;5053134;28;20885;-77
2021/01/25 03:50:47;;;;;;;5.45;3.75;;;;;;;;;;5052751;28;20169;-76
2021/01/25 03:53:13;;;;;;;3.60;3.40;;;;;;;;;;5052855;28;20181;-76
2021/01/25 03:58:43;;;;;;;6.13;3.45;;;;;;;;;;5052135;28;21041;-75
2021/01/25 04:01:09;;;;;;;5.30;3.60;;;;;;;;;;5034862;28;20173;-76
2021/01/25 04:03:35;;;;;;;4.57;3.90;;;;;;;;;;5052857;28;20183;-76
2021/01/25 04:06:01;;;;;;;8.10;4.23;;;;;;;;;;5052388;28;20638;-77
2021/01/25 04:08:27;;;;;;;12.80;6.00;;;;;;;;;;5052512;28;20856;-77
2021/01/25 04:10:53;;;;;;;6.60;3.63;;;;;;;;;;5052540;28;20519;-76
2021/01/25 04:13:19;;;;;;;5.60;3.30;;;;;;;;;;5052199;28;20940;-77
2021/01/25 04:15:45;;;;;;;4.10;3.70;;;;;;;;;;5052724;28;20477;-79
2021/01/25 04:18:11;;;;;;;3.93;3.53;;;;;;;;;;5052105;28;20470;-76
2021/01/25 04:20:37;;;;;;;5.07;4.50;;;;;;;;;;5052451;28;20407;-77
2021/01/25 04:23:03;;;;;;;7.83;2.97;;;;;;;;;;5052591;28;20184;-77
2021/01/25 04:28:33;;;;;;;6.00;3.90;;;;;;;;;;5052258;28;20182;-76
2021/01/25 04:30:59;;;;;;;4.22;3.60;;;;;;;;;;5034651;28;20204;-77
2021/01/25 04:33:25;;;;;;;3.80;3.20;;;;;;;;;;5052622;28;20290;-77
2021/01/25 04:35:51;;;;;;;3.13;2.83;;;;;;;;;;5052435;28;20426;-78
2021/01/25 04:38:17;;;;;;;3.60;3.30;;;;;;;;;;5052417;28;20944;-77
2021/01/25 04:43:47;;;;;;;2.85;2.65;;;;;;;;;;5052778;28;20265;-77
2021/01/25 04:46:15;;;;;;;4.85;3.90;;;;;;;;;;5056125;28;20633;-77
2021/01/25 04:48:44;;;;;;;5.22;3.05;;;;;;;;;;5056241;28;20514;-80
2021/01/25 04:51:10;;;;;;;4.65;3.95;;;;;;;;;;5056260;28;20678;-77
2021/01/25 04:53:38;;;;;;;4.47;3.83;;;;;;;;;;5056106;28;20167;-77
2021/01/25 04:59:08;;;;;;;6.60;4.15;;;;;;;;;;5055762;28;20191;-76
2021/01/25 05:01:34;;;;;;;5.60;4.10;;;;;;;;;;5055760;28;20169;-76
2021/01/25 05:04:00;;;;;;;5.93;4.80;;;;;;;;;;5055977;28;20201;-77
2021/01/25 05:06:26;;;;;;;5.57;4.28;;;;;;;;;;5055785;28;20628;-76
2021/01/25 05:08:52;;;;;;;6.10;4.10;;;;;;;;;;5055097;28;20270;-77
2021/01/25 05:11:18;;;;;;;8.25;4.57;;;;;;;;;;5055252;28;20418;-76
2021/01/25 05:13:45;;;;;;;6.28;4.80;;;;;;;;;;5055697;28;20172;-76
2021/01/25 05:16:18;;;;;;;7.05;4.97;;;;;;;;;;5055545;28;20191;-76
2021/01/25 05:18:44;;;;;;;5.07;3.53;;;;;;;;;;5055588;28;20211;-76
2021/01/25 05:21:10;;;;;;;5.25;4.25;;;;;;;;;;5055595;28;20582;-75
2021/01/25 05:23:37;;;;;;;8.90;4.43;;;;;;;;;;5055487;28;20243;-76
2021/01/25 05:29:06;;;;;;;5.45;4.30;;;;;;;;;;5055113;28;20222;-76
2021/01/25 05:31:32;;;;;;;10.50;5.03;;;;;;;;;;5055402;28;20171;-77
2021/01/25 05:33:58;;;;;;;7.63;5.13;;;;;;;;;;5055378;28;20414;-77
2021/01/25 05:36:25;;;;;;;7.82;5.32;;;;;;;;;;5055532;28;20191;-76
2021/01/25 05:38:52;;;;;;;5.63;4.68;;;;;;;;;;5054812;28;20211;-75
2021/01/25 05:44:21;;;;;;;8.70;5.15;;;;;;;;;;5055417;28;20515;-75
2021/01/25 05:46:47;;;;;;;6.32;5.07;;;;;;;;;;5054638;28;20172;-77
2021/01/25 05:49:13;;;;;;;6.20;4.57;;;;;;;;;;5055273;28;20173;-77
2021/01/25 05:51:40;;;;;;;5.15;4.65;;;;;;;;;;5055085;28;20620;-76
2021/01/25 05:54:06;;;;;;;5.22;4.72;;;;;;;;;;5054746;28;20204;-75
2021/01/25 05:59:36;;;;;;;4.50;4.00;;;;;;;;;;5053956;28;20196;-77
2021/01/25 06:02:02;;;;;;;5.30;4.23;;;;;;;;;;5054135;28;20173;-76
2021/01/25 06:04:29;;;;;;;5.80;4.82;;;;;;;;;;5054588;28;20423;-76
2021/01/25 06:06:55;;;;;;;7.60;6.07;;;;;;;;;;5054671;28;20164;-76
2021/01/25 06:15:20;;;;;;;6.63;5.15;;;;;;;;;;5054795;28;20183;-77
2021/01/25 06:17:47;;;;;;;4.88;4.00;;;;;;;;;;5054152;28;20291;-77
2021/01/25 06:20:14;;;;;;;3.63;3.30;;;;;;;;;;5054632;28;20245;-77
2021/01/25 06:22:40;;;;;;;4.32;3.88;;;;;;;;;;5054377;28;20626;-76
2021/01/25 06:25:07;;;;;;;4.17;3.77;;;;;;;;;;5054045;28;20263;-76
2021/01/25 06:27:33;;;;;;;5.68;3.80;;;;;;;;;;5054147;28;20975;-75
2021/01/25 06:30:02;;;;;;;4.53;4.00;;;;;;;;;;5053618;28;20176;-76
2021/01/25 06:32:32;;;;;;;4.30;3.90;;;;;;;;;;5054262;28;20173;-78
2021/01/25 06:34:58;;;;;;;7.35;4.32;;;;;;;;;;5053608;28;20172;-77
2021/01/25 06:37:28;;;;;;;4.28;3.88;;;;;;;;;;5053583;28;20200;-77
2021/01/25 06:39:57;;;;;;;4.60;4.10;;;;;;;;;;5053677;28;20172;-77
2021/01/25 06:42:30;;;;;;;4.60;3.63;;;;;;;;;;5053768;28;20168;-76
2021/01/25 06:44:56;;;;;;;5.90;4.75;;;;;;;;;;5053836;28;20213;-76
2021/01/25 06:47:22;;;;;;;4.70;3.70;;;;;;;;;;5054077;28;20251;-74
2021/01/25 06:49:51;;;;;;;5.10;3.10;;;;;;;;;;5053669;28;20410;-77
2021/01/25 06:52:18;;;;;;;5.55;3.70;;;;;;;;;;5053723;28;20421;-76
2021/01/25 06:54:45;;;;;;;7.43;4.80;;;;;;;;;;5053465;28;20165;-76
2021/01/25 07:00:18;;;;;;;6.95;4.97;;;;;;;;;;5053839;28;20221;-77
2021/01/25 07:02:52;;;;;;;5.70;4.22;;;;;;;;;;5053229;28;20267;-76
2021/01/25 07:05:21;;;;;;;4.35;3.95;;;;;;;;;;5044815;28;20173;-76
2021/01/25 07:07:47;;;;;;;5.80;5.15;;;;;;;;;;5053280;28;20176;-76
2021/01/25 07:10:15;;;;;;;4.78;4.28;;;;;;;;;;5053093;28;20227;-78
2021/01/25 07:12:41;;;;;;;5.03;4.30;;;;;;;;;;5053943;28;20172;-78
2021/01/25 07:15:10;;;;;;;5.95;4.90;;;;;;;;;;5053553;28;20174;-76
2021/01/25 07:17:36;;;;;;;6.30;5.03;;;;;;;;;;5053132;28;20350;-77
2021/01/25 07:20:04;;;;;;;5.78;5.18;;;;;;;;;;5053203;28;20600;-76
2021/01/25 07:22:31;;;;;;;5.05;4.55;;;;;;;;;;5052908;28;20179;-77
2021/01/25 07:24:57;;;;;;;4.93;4.50;;;;;;;;;;5052295;28;20255;-76
2021/01/25 07:30:30;;;;;;;5.47;4.90;;;;;;;;;;5052917;28;20222;-82
2021/01/25 07:32:56;;;;;;;5.55;4.80;;;;;;;;;;5053106;28;20192;-77
2021/01/25 07:35:27;;;;;;;5.40;3.97;;;;;;;;;;5053047;28;20195;-78
2021/01/25 07:37:53;;;;;;;4.80;4.38;;;;;;;;;;5052680;28;20574;-78
2021/01/25 07:40:22;;;;;;;5.95;4.65;;;;;;;;;;5052808;28;20164;-76
2021/01/25 07:45:51;;;;;;;4.78;4.00;;;;;;;;;;5053378;28;20179;-76
2021/01/25 07:48:18;;;;;;;6.13;5.50;;;;;;;;;;5053049;28;20168;-75
2021/01/25 07:50:54;;;;;;;7.20;4.82;;;;;;;;;;5052775;28;20259;-75
2021/01/25 07:53:20;;;;;;;5.45;4.82;;;;;;;;;;5053029;28;20168;-77
2021/01/25 07:55:46;;;;;;;6.03;4.63;;;;;;;;;;5052768;28;20528;-76
2021/01/25 07:58:13;;;;;;;6.05;5.05;;;;;;;;;;5052655;28;20220;-76
2021/01/25 08:00:42;;;;;;;7.85;5.35;;;;;;;;;;5052977;28;20267;-77
2021/01/25 08:03:08;;;;;;;8.82;5.53;;;;;;;;;;5053099;28;20175;-77
2021/01/25 08:05:34;;;;;;;10.70;6.90;;;;;;;;;;5052949;28;20611;-75
2021/01/25 08:08:03;;;;;;;6.57;5.90;;;;;;;;;;5052776;28;20495;-77
2021/01/25 08:10:30;;;;;;;7.57;5.90;;;;;;;;;;5052478;28;20255;-76
2021/01/25 08:16:02;;;;;;;5.47;4.97;;;;;;;;;;5052952;28;20163;-78
2021/01/25 08:18:40;;;;;;;10.60;6.47;;;;;;;;;;5052681;28;20219;-77
2021/01/25 08:21:07;;;;;;;5.85;4.85;;;;;;;;;;5056378;28;20163;-76
2021/01/25 08:23:41;;;;;;;6.03;5.43;;;;;;;;;;5056928;28;20192;-80
2021/01/25 08:26:09;;;;;;;8.27;6.53;;;;;;;;;;5039139;28;20179;-78
2021/01/25 08:28:36;;;;;;;7.38;5.65;;;;;;;;;;5056512;28;20179;-76
2021/01/25 08:31:28;;;;;;;6.63;5.03;;;;;;;;;;5056708;28;20255;-77
2021/01/25 08:33:59;;;;;;;4.78;4.22;;;;;;;;;;5056535;28;20555;-76
2021/01/25 08:36:35;;;;;;;5.78;5.00;;;;;;;;;;5056390;28;20171;-77
2021/01/25 08:39:30;;;;;;;5.63;5.07;;;;;;;;;;5056352;28;20536;-77
2021/01/25 08:41:57;;;;;;;4.70;4.22;;;;;;;;;;5035470;28;20211;-77
2021/01/25 08:44:24;;;;;;;5.30;4.35;;;;;;;;;;5056351;28;20161;-77
2021/01/25 08:46:50;;;;;;;7.18;4.13;;;;;;;;;;5056299;28;20252;-77
2021/01/25 08:49:33;;;;;;;9.70;4.57;;;;;;;;;;5056224;28;20164;-78
2021/01/25 08:52:07;;;;;;;8.48;5.60;;;;;;;;;;5056099;28;20192;-81
2021/01/25 08:54:34;;;;;;;5.40;4.85;;;;;;;;;;5037931;28;20206;-79
2021/01/25 08:57:00;;;;;;;5.78;4.47;;;;;;;;;;5056029;28;20649;-79
2021/01/25 08:59:31;;;;;;;5.68;4.75;;;;;;;;;;5055564;28;20179;-78
2021/01/25 09:01:57;;;;;;;9.32;4.28;;;;;;;;;;5037991;28;20184;-77
2021/01/25 09:04:23;;;;;;;5.32;4.82;;;;;;;;;;5055895;28;20179;-80
2021/01/25 09:06:56;;;;;;;4.17;3.87;;;;;;;;;;5056025;28;20251;-81
2021/01/25 09:09:22;;;;;;;5.40;4.13;;;;;;;;;;5055693;28;20470;-78
2021/01/25 09:11:48;;;;;;;6.13;4.53;;;;;;;;;;5055882;28;20203;-78
2021/01/25 09:14:20;;;;;;;4.27;3.87;;;;;;;;;;5055775;28;20530;-78
2021/01/25 09:16:46;;;;;;;3.85;3.40;;;;;;;;;;5055670;28;20407;-77
2021/01/25 09:19:14;;;;;;;5.30;3.97;;;;;;;;;;5055391;28;20189;-79
2021/01/25 09:21:40;;;;;;;5.05;4.55;;;;;;;;;;5055845;28;20411;-77
2021/01/25 09:24:06;;;;;;;5.03;4.50;;;;;;;;;;5055292;28;20645;-76
2021/01/25 09:26:32;;;;;;;4.68;4.28;;;;;;;;;;5055361;28;20169;-76
2021/01/25 09:32:04;;;;;;;4.50;3.67;;;;;;;;;;5055346;28;20222;-78
2021/01/25 09:34:31;;;;;;;5.03;4.50;;;;;;;;;;5055147;28;20179;-78
2021/01/25 09:36:57;;;;;;;5.63;4.20;;;;;;;;;;5055071;28;20173;-79
2021/01/25 09:39:23;;;;;;;4.40;4.00;;;;;;;;;;5055147;28;20619;-78
2021/01/25 09:41:49;;;;;;;5.07;4.20;;;;;;;;;;5055118;28;20913;-78
2021/01/25 09:44:17;;;;;;;5.07;4.38;;;;;;;;;;5055285;28;20168;-79
2021/01/25 09:46:43;;;;;;;4.32;3.88;;;;;;;;;;5054869;28;20566;-78
2021/01/25 09:49:12;;;;;;;5.20;3.58;;;;;;;;;;5053606;28;20496;-80
2021/01/25 09:51:38;;;;;;;3.65;3.33;;;;;;;;;;5054008;28;20218;-75
2021/01/25 09:54:04;;;;;;;4.50;3.35;;;;;;;;;;5053909;28;20168;-77
2021/01/25 09:56:30;;;;;;;3.80;3.35;;;;;;;;;;5053829;28;20226;-77
2021/01/25 10:02:00;;;;;;;4.00;3.50;;;;;;;;;;5054105;28;20437;-79
2021/01/25 10:04:26;;;;;;;7.53;4.00;;;;;;;;;;5053401;28;20687;-78
2021/01/25 10:06:52;;;;;;;6.13;5.47;;;;;;;;;;5053691;28;20415;-77
2021/01/25 10:09:19;;;;;;;5.50;4.65;;;;;;;;;;5052775;28;20221;-76
2021/01/25 10:11:45;;;;;;;4.43;4.03;;;;;;;;;;5053847;28;20259;-76
2021/01/25 10:17:14;;;;;;;3.80;2.65;;;;;;;;;;5053308;28;20273;-78
2021/01/25 10:19:40;;;;;;;3.43;2.97;;;;;;;;;;5053439;28;20615;-76
2021/01/25 10:22:07;;;;;;;4.53;2.97;;;;;;;;;;5053719;28;20434;-75
2021/01/25 10:24:33;;;;;;;3.63;3.33;;;;;;;;;;5053159;28;20407;-75
2021/01/25 10:26:59;;;;;;;3.47;3.17;;;;;;;;;;5053324;28;20184;-75
2021/01/25 10:32:29;;;;;;;3.38;3.08;;;;;;;;;;5053154;28;20559;-77
2021/01/25 10:34:55;;;;;;;3.20;2.87;;;;;;;;;;5052894;28;20216;-77
2021/01/25 10:37:21;;;;;;;3.67;3.25;;;;;;;;;;5053180;28;20451;-79
2021/01/25 10:39:47;;;;;;;3.40;3.10;;;;;;;;;;5052623;28;20188;-79
2021/01/25 10:42:13;;;;;;;3.35;3.05;;;;;;;;;;5051874;28;20632;-80
2021/01/25 10:47:42;;;;;;;2.85;2.65;;;;;;;;;;5052652;28;20175;-74
2021/01/25 10:50:13;;;;;;;3.60;3.03;;;;;;;;;;5052258;28;20627;-76
2021/01/25 10:52:39;;;;;;;2.63;2.42;;;;;;;;;;5052709;28;20463;-74
2021/01/25 10:55:06;;;;;;;3.15;2.80;;;;;;;;;;5052453;28;20559;-77
2021/01/25 10:57:33;;;;;;;4.13;2.35;;;;;;;;;;5052650;28;20238;-75
2021/01/25 11:03:03;;;;;;;2.78;2.03;;;;;;;;;;5052825;28;20709;-78
2021/01/25 11:05:29;;;;;;;3.90;2.20;;;;;;;;;;5052467;28;20188;-77
2021/01/25 11:07:55;;;;;;;2.27;1.87;;;;;;;;;;5034451;28;20266;-76
2021/01/25 11:10:26;;;;;;;1.95;1.63;;;;;;;;;;5051996;28;20519;-76
2021/01/25 11:12:52;;;;;;;4.60;2.63;;;;;;;;;;5052365;28;20176;-75
2021/01/25 11:15:18;;;;;;;2.05;1.95;;;;;;;;;;5052184;28;20255;-75
2021/01/25 11:17:44;;;;;;;2.90;1.67;;;;;;;;;;5052232;28;20218;-76
2021/01/25 11:20:10;;;;;;;2.00;1.90;;;;;;;;;;5052251;28;20169;-75
2021/01/25 11:22:36;;;;;;;3.58;2.47;;;;;;;;;;5052435;28;20209;-76
2021/01/25 11:25:03;;;;;;;3.37;2.17;;;;;;;;;;5052043;28;20198;-75
2021/01/25 11:27:29;;;;;;;4.18;2.20;;;;;;;;;;5052396;28;20420;-75
2021/01/25 11:32:58;;;;;;;2.78;2.33;;;;;;;;;;5052105;28;20408;-77
2021/01/25 11:35:25;;;;;;;4.15;2.80;;;;;;;;;;5052877;28;20556;-79
2021/01/25 11:37:51;;;;;;;2.40;2.20;;;;;;;;;;5034092;28;20221;-82
2021/01/25 11:40:18;;;;;;;2.70;2.30;;;;;;;;;;5051556;28;20618;-81
2021/01/25 11:42:44;;;;;;;2.78;2.55;;;;;;;;;;5051807;28;20253;-78
2021/01/25 11:48:14;;;;;;;2.28;2.00;;;;;;;;;;5053180;28;20471;-80
2021/01/25 11:50:40;;;;;;;3.05;2.13;;;;;;;;;;5035287;28;20184;-76
2021/01/25 11:53:05;;;;;;;3.00;2.70;;;;;;;;;;5051600;28;20193;-81
2021/01/25 11:55:31;;;;;;;2.67;2.47;;;;;;;;;;5051449;28;20506;-82
2021/01/25 11:57:57;;;;;;;2.50;2.30;;;;;;;;;;5051533;28;21051;-82
2021/01/25 12:03:27;;;;;;;5.55;2.72;;;;;;;;;;5050622;28;20467;-79
2021/01/25 12:05:53;;;;;;;3.27;2.97;;;;;;;;;;5051691;28;20179;-77
2021/01/25 12:08:19;;;;;;;3.23;2.23;;;;;;;;;;5051521;28;20415;-77
2021/01/25 12:10:46;;;;;;;2.00;1.80;;;;;;;;;;5050842;28;20475;-76
2021/01/25 12:13:12;;;;;;;2.17;1.92;;;;;;;;;;5051436;28;20416;-78
2021/01/25 12:18:42;;;;;;;3.63;2.30;;;;;;;;;;5051271;28;20234;-75
2021/01/25 12:21:08;;;;;;;3.45;2.85;;;;;;;;;;5033580;28;20174;-77
2021/01/25 12:23:34;;;;;;;4.30;2.00;;;;;;;;;;5051626;28;20171;-77
2021/01/25 12:26:00;;;;;;;3.97;3.50;;;;;;;;;;5051160;28;20538;-78
2021/01/25 12:28:26;;;;;;;3.60;2.60;;;;;;;;;;5050577;28;20178;-77
2021/01/25 12:33:55;;;;;;;6.38;2.60;;;;;;;;;;5051454;28;20507;-77
2021/01/25 12:36:22;;;;;;;3.95;2.33;;;;;;;;;;5051110;28;20208;-76
2021/01/25 12:38:48;;;;;;;2.92;2.67;;;;;;;;;;5051089;28;20212;-78
2021/01/25 12:41:14;;;;;;;2.35;2.15;;;;;;;;;;5051156;28;20169;-79
2021/01/25 12:43:40;;;;;;;2.57;1.70;;;;;;;;;;5051203;28;20533;-78
2021/01/25 12:49:11;;;;;;;1.80;1.70;;;;;;;;;;5051503;28;20224;-76
2021/01/25 12:51:39;;;;;;;2.78;2.08;;;;;;;;;;5051190;28;20166;-77
2021/01/25 12:54:05;;;;;;;1.65;1.55;;;;;;;;;;5051065;28;20191;-76
2021/01/25 12:56:31;;;;;;;3.90;2.00;;;;;;;;;;5050948;28;20268;-78
2021/01/25 12:58:57;;;;;;;2.63;2.43;;;;;;;;;;5050558;28;20467;-74
2021/01/25 13:01:23;;;;;;;2.40;2.20;;;;;;;;;;5051060;28;20479;-76
2021/01/25 13:03:49;;;;;;;2.88;2.10;;;;;;;;;;5033164;28;20528;-75
2021/01/25 13:06:15;;;;;;;2.40;2.20;;;;;;;;;;5053361;28;20167;-75
2021/01/25 13:08:44;;;;;;;2.95;2.25;;;;;;;;;;5054627;28;20175;-76
2021/01/25 13:11:11;;;;;;;2.45;2.08;;;;;;;;;;5054681;28;20249;-76
2021/01/25 13:13:37;;;;;;;2.88;2.03;;;;;;;;;;5055011;28;20165;-77
2021/01/25 13:19:07;;;;;;;1.60;1.50;;;;;;;;;;5054702;28;20729;-76
2021/01/25 13:21:33;;;;;;;2.28;1.63;;;;;;;;;;5054401;28;20665;-75
2021/01/25 13:23:59;;;;;;;1.60;1.50;;;;;;;;;;5054658;28;20166;-76
2021/01/25 13:26:25;;;;;;;1.80;1.70;;;;;;;;;;5054510;28;20489;-76
2021/01/25 13:28:51;;;;;;;3.58;1.70;;;;;;;;;;5054121;28;20167;-75
2021/01/25 13:34:20;;;;;;;3.22;2.00;;;;;;;;;;5054342;28;20252;-76
2021/01/25 13:36:46;;;;;;;2.23;1.70;;;;;;;;;;5054419;28;20192;-75
2021/01/25 13:39:12;;;;;;;3.03;1.73;;;;;;;;;;5054180;28;20502;-75
2021/01/25 13:41:38;;;;;;;2.03;1.57;;;;;;;;;;5054783;28;20173;-77
2021/01/25 13:44:04;;;;;;;1.38;1.20;;;;;;;;;;5054297;28;20417;-75
2021/01/25 13:49:33;;;;;;;1.35;1.05;;;;;;;;;;5054494;28;20188;-74
2021/01/25 13:51:59;;;;;;;1.40;1.30;;;;;;;;;;5054182;28;20625;-75
2021/01/25 13:54:25;;;;;;;2.60;1.40;;;;;;;;;;5053633;28;20422;-75
2021/01/25 13:56:51;;;;;;;1.40;1.30;;;;;;;;;;5054094;28;20166;-77
2021/01/25 13:59:17;;;;;;;1.33;0.87;;;;;;;;;;5053534;28;20796;-77
2021/01/25 14:04:47;;;;;;;0.70;0.52;;;;;;;;;;5053748;28;20646;-76
2021/01/25 14:07:13;;;;;;;0.50;0.43;;;;;;;;;;5053760;28;20245;-75
2021/01/25 14:09:39;;;;;;;0.60;0.60;;;;;;;;;;5053044;28;20553;-76
2021/01/25 14:12:05;;;;;;;0.65;0.65;;;;;;;;;;5053484;28;20538;-76
2021/01/25 14:14:31;;;;;;;3.67;0.85;;;;;;;;;;5053443;28;20172;-76
2021/01/25 14:20:01;;;;;;;1.10;1.00;;;;;;;;;;5053250;28;20967;-75
2021/01/25 14:22:27;;;;;;;0.95;0.70;;;;;;;;;;5053049;28;20172;-77
2021/01/25 14:24:53;;;;;;;0.70;0.70;;;;;;;;;;5053075;28;20175;-76
2021/01/25 14:27:19;;;;;;;1.05;0.73;;;;;;;;;;5035212;28;20424;-76
2021/01/25 14:29:45;;;;;;;0.73;0.40;;;;;;;;;;5052354;28;20163;-78
2021/01/25 14:35:15;;;;;;;1.05;0.70;;;;;;;;;;5052911;28;20410;-76
2021/01/25 14:37:41;;;;;;;0.80;0.80;;;;;;;;;;5053066;28;20198;-77
2021/01/25 14:40:13;;;;;;;1.40;0.95;;;;;;;;;;5052761;28;20179;-75
2021/01/25 14:42:39;;;;;;;1.40;1.30;;;;;;;;;;5052931;28;20642;-76
2021/01/25 14:45:06;;;;;;;0.90;0.65;;;;;;;;;;5052674;28;20183;-75
2021/01/25 14:50:35;;;;;;;1.30;0.70;;;;;;;;;;5046936;28;20171;-74
2021/01/25 14:53:02;;;;;;;0.65;0.50;;;;;;;;;;5052677;28;20540;-75
2021/01/25 14:55:29;;;;;;;0.73;0.65;;;;;;;;;;5052493;28;20642;-74
2021/01/25 14:57:55;;;;;;;0.63;0.57;;;;;;;;;;5052445;28;20211;-75
2021/01/25 15:06:28;;;;;;;1.17;0.88;;;;;;;;;;5052199;28;20582;-75
2021/01/25 15:08:54;;;;;;;7.22;1.10;;;;;;;;;;5052192;28;20711;-76
2021/01/25 15:11:20;;;;;;;1.20;1.10;;;;;;;;;;5052330;28;20208;-76
2021/01/25 15:13:46;;;;;;;0.80;0.75;;;;;;;;;;5052404;28;20411;-76
2021/01/25 15:16:12;;;;;;;1.30;0.80;;;;;;;;;;5052275;28;20173;-75
2021/01/25 15:18:38;;;;;;;0.77;0.77;;;;;;;;;;5052103;28;20391;-75
2021/01/25 15:21:04;;;;;;;1.03;1.03;;;;;;;;;;5052216;28;20408;-76
2021/01/25 15:23:30;;;;;;;1.38;1.05;;;;;;;;;;5052218;28;20549;-78
2021/01/25 15:25:56;;;;;;;2.95;1.15;;;;;;;;;;5034052;28;20177;-79
2021/01/25 15:28:25;;;;;;;1.25;1.00;;;;;;;;;;5051577;28;20184;-77
2021/01/25 15:30:51;;;;;;;1.10;0.95;;;;;;;;;;5052139;28;20185;-78
2021/01/25 15:33:26;;;;;;;1.10;1.07;;;;;;;;;;5052042;28;20571;-78
2021/01/25 15:35:52;;;;;;;2.03;1.00;;;;;;;;;;5051920;28;20501;-76
2021/01/25 15:38:18;;;;;;;1.20;1.10;;;;;;;;;;5051545;28;20745;-76
2021/01/25 15:40:44;;;;;;;15.90;2.05;;;;;;;;;;5051815;28;20407;-76
2021/01/25 15:43:10;;;;;;;3.63;1.37;;;;;;;;;;5051815;28;20179;-75
2021/01/25 15:45:37;;;;;;;3.25;1.70;;;;;;;;;;5033581;28;20439;-76
2021/01/25 15:51:07;;;;;;;2.15;1.25;;;;;;;;;;5051654;28;20693;-77
2021/01/25 15:53:33;;;;;;;1.30;1.20;;;;;;;;;;5052679;28;20173;-76
2021/01/25 15:55:59;;;;;;;1.17;1.17;;;;;;;;;;5052448;28;20169;-75
2021/01/25 15:58:25;;;;;;;1.77;1.15;;;;;;;;;;5052147;28;20477;-75
2021/01/25 16:00:50;;;;;;;2.23;1.40;;;;;;;;;;5052804;28;20199;-75
2021/01/25 16:06:22;;;;;;;2.30;2.00;;;;;;;;;;5052400;28;20923;-76
2021/01/25 16:08:48;;;;;;;1.60;1.50;;;;;;;;;;5052294;28;20279;-76
2021/01/25 16:11:15;;;;;;;2.40;2.20;;;;;;;;;;5052242;28;20176;-75
2021/01/25 16:13:41;;;;;;;3.00;1.98;;;;;;;;;;5052350;28;20218;-77
2021/01/25 16:16:08;;;;;;;2.90;1.53;;;;;;;;;;5052443;28;20180;-75
2021/01/25 16:21:39;;;;;;;2.13;1.98;;;;;;;;;;5052746;28;20525;-75
2021/01/25 16:24:06;;;;;;;1.80;1.70;;;;;;;;;;5052333;28;20161;-75
2021/01/25 16:26:32;;;;;;;2.22;2.05;;;;;;;;;;5052203;28;20176;-77
2021/01/25 16:28:58;;;;;;;1.88;1.63;;;;;;;;;;5051963;28;20474;-75
2021/01/25 16:31:24;;;;;;;4.70;2.17;;;;;;;;;;5052103;28;20168;-76
2021/01/25 16:33:51;;;;;;;1.83;1.73;;;;;;;;;;5052504;28;20177;-75
2021/01/25 16:36:17;;;;;;;2.20;2.00;;;;;;;;;;5052026;28;20172;-76
2021/01/25 16:38:43;;;;;;;1.98;1.65;;;;;;;;;;5051268;28;20218;-78
2021/01/25 16:41:09;;;;;;;2.90;2.30;;;;;;;;;;5053105;28;20176;-75
2021/01/25 16:43:35;;;;;;;4.00;2.90;;;;;;;;;;5055201;28;20415;-76
2021/01/25 16:46:01;;;;;;;4.80;2.40;;;;;;;;;;5055272;28;20726;-76
2021/01/25 16:51:31;;;;;;;2.40;2.20;;;;;;;;;;5055261;28;20203;-79
2021/01/25 16:53:57;;;;;;;1.90;1.80;;;;;;;;;;5054842;28;20209;-74
2021/01/25 16:56:23;;;;;;;2.60;2.20;;;;;;;;;;5054882;28;20410;-74
2021/01/25 16:58:49;;;;;;;4.13;1.43;;;;;;;;;;5054062;28;20470;-77
2021/01/25 17:01:15;;;;;;;4.07;2.67;;;;;;;;;;5054569;28;20415;-76
2021/01/25 17:06:44;;;;;;;4.75;2.15;;;;;;;;;;5054572;28;20561;-76
2021/01/25 17:09:10;;;;;;;1.67;1.58;;;;;;;;;;5053893;28;20576;-77
2021/01/25 17:11:37;;;;;;;2.40;2.20;;;;;;;;;;5036596;28;20176;-75
2021/01/25 17:14:03;;;;;;;2.30;1.90;;;;;;;;;;5055684;28;20548;-75
2021/01/25 17:16:29;;;;;;;3.08;2.70;;;;;;;;;;5055428;28;20211;-75